RPA4478 KORF-KLGA
Flight info
| Callsign | RPA4478 |
|---|---|
| Flight time | 0h 55m |
| Altitude | 31000 |
| Route | NUTIY1 HYTRA PROUD2 |
| Aircraft | E170/M-SDE3GILORVW/S |
Departure
| Time | 2026-05-05 22:51 |
|---|---|
| Airport | Norfolk International Airport (KORF) |
Arrival
| Time | 2026-05-05 23:47 |
|---|---|
| Airport | LaGuardia Airport (KLGA) |
| Time | Latitude | Longitude | Altitude | Speed | Heading |
|---|---|---|---|---|---|
| 2026-05-05 22:28 | 36.89957 | -76.20176 | 1 ft | 0 kts | 218° |
| 2026-05-05 22:41 | 36.89964 | -76.20168 | 1 ft | 4 kts | 218° |
| 2026-05-05 22:41 | 36.89982 | -76.20150 | 1 ft | 2 kts | 219° |
| 2026-05-05 22:41 | 36.90003 | -76.20137 | 1 ft | 4 kts | 172° |
| 2026-05-05 22:42 | 36.90010 | -76.20145 | 1 ft | 4 kts | 103° |
| 2026-05-05 22:42 | 36.90007 | -76.20111 | 1 ft | 4 kts | 90° |
| 2026-05-05 22:42 | 36.90008 | -76.20078 | 1 ft | 4 kts | 84° |
| 2026-05-05 22:42 | 36.90009 | -76.20072 | 1 ft | 0 kts | 84° |
| 2026-05-05 22:46 | 36.90010 | -76.20055 | 1 ft | 7 kts | 88° |
| 2026-05-05 22:46 | 36.90002 | -76.19975 | 1 ft | 11 kts | 103° |
| 2026-05-05 22:47 | 36.89979 | -76.19876 | 1 ft | 13 kts | 119° |
| 2026-05-05 22:47 | 36.89927 | -76.19778 | 1 ft | 13 kts | 96° |
| 2026-05-05 22:47 | 36.89986 | -76.19695 | 1 ft | 15 kts | 38° |
| 2026-05-05 22:47 | 36.90073 | -76.19608 | 1 ft | 17 kts | 38° |
| 2026-05-05 22:48 | 36.90181 | -76.19524 | 1 ft | 20 kts | 26° |
| 2026-05-05 22:48 | 36.90305 | -76.19433 | 1 ft | 21 kts | 38° |
| 2026-05-05 22:48 | 36.90416 | -76.19326 | 0 ft | 20 kts | 38° |
| 2026-05-05 22:48 | 36.90522 | -76.19224 | 0 ft | 18 kts | 37° |
| 2026-05-05 22:49 | 36.90598 | -76.19150 | 0 ft | 10 kts | 44° |
| 2026-05-05 22:49 | 36.90604 | -76.19070 | 0 ft | 8 kts | 128° |
| 2026-05-05 22:49 | 36.90586 | -76.19042 | -1 ft | 0 kts | 129° |
| 2026-05-05 22:50 | 36.90586 | -76.19041 | -1 ft | 1 kts | 129° |
| 2026-05-05 22:50 | 36.90563 | -76.19006 | -2 ft | 10 kts | 128° |
| 2026-05-05 22:50 | 36.90487 | -76.18998 | -2 ft | 14 kts | 217° |
| 2026-05-05 22:50 | 36.90319 | -76.19159 | 0 ft | 68 kts | 217° |
| 2026-05-05 22:51 | 36.89719 | -76.19738 | 84 ft | 141 kts | 218° |
| 2026-05-05 22:51 | 36.88868 | -76.20554 | 799 ft | 169 kts | 215° |
| 2026-05-05 22:51 | 36.87870 | -76.21499 | 1875 ft | 185 kts | 217° |
| 2026-05-05 22:51 | 36.86886 | -76.22475 | 3318 ft | 177 kts | 216° |
| 2026-05-05 22:52 | 36.85878 | -76.23463 | 3990 ft | 194 kts | 217° |
| 2026-05-05 22:52 | 36.84789 | -76.24472 | 4920 ft | 193 kts | 217° |
| 2026-05-05 22:52 | 36.83733 | -76.25498 | 5856 ft | 194 kts | 228° |
| 2026-05-05 22:52 | 36.83264 | -76.27079 | 6676 ft | 203 kts | 263° |
| 2026-05-05 22:53 | 36.83262 | -76.28865 | 7460 ft | 206 kts | 264° |
| 2026-05-05 22:53 | 36.83233 | -76.30653 | 8233 ft | 207 kts | 264° |
| 2026-05-05 22:53 | 36.83319 | -76.32464 | 8941 ft | 214 kts | 278° |
| 2026-05-05 22:53 | 36.83691 | -76.34274 | 9693 ft | 217 kts | 280° |
| 2026-05-05 22:54 | 36.84363 | -76.36002 | 10335 ft | 229 kts | 301° |
| 2026-05-05 22:54 | 36.85558 | -76.37379 | 10952 ft | 243 kts | 321° |
| 2026-05-05 22:54 | 36.87172 | -76.38190 | 11712 ft | 261 kts | 343° |
| 2026-05-05 22:54 | 36.89104 | -76.38462 | 12131 ft | 294 kts | 354° |
| 2026-05-05 22:55 | 36.91220 | -76.38556 | 12774 ft | 314 kts | 354° |
| 2026-05-05 22:55 | 36.93461 | -76.38681 | 13528 ft | 330 kts | 354° |
| 2026-05-05 22:55 | 36.95811 | -76.38820 | 14348 ft | 343 kts | 354° |
| 2026-05-05 22:55 | 36.98217 | -76.38978 | 15353 ft | 349 kts | 353° |
| 2026-05-05 22:56 | 37.00659 | -76.39150 | 16426 ft | 352 kts | 353° |
| 2026-05-05 22:56 | 37.03088 | -76.39335 | 17429 ft | 356 kts | 353° |
| 2026-05-05 22:56 | 37.05570 | -76.39542 | 18408 ft | 359 kts | 353° |
| 2026-05-05 22:56 | 37.08079 | -76.39742 | 19222 ft | 364 kts | 354° |
| 2026-05-05 22:57 | 37.10634 | -76.39938 | 20043 ft | 370 kts | 353° |
| 2026-05-05 22:57 | 37.13219 | -76.40138 | 20869 ft | 375 kts | 353° |
| 2026-05-05 22:57 | 37.15842 | -76.40320 | 21657 ft | 380 kts | 354° |
| 2026-05-05 22:57 | 37.18506 | -76.40494 | 22344 ft | 386 kts | 353° |
| 2026-05-05 22:58 | 37.21220 | -76.40665 | 23035 ft | 392 kts | 354° |
| 2026-05-05 22:58 | 37.23969 | -76.40801 | 23687 ft | 397 kts | 354° |
| 2026-05-05 22:58 | 37.26706 | -76.40939 | 24324 ft | 399 kts | 354° |
| 2026-05-05 22:58 | 37.29484 | -76.41068 | 25027 ft | 400 kts | 354° |
| 2026-05-05 22:59 | 37.32272 | -76.41188 | 25703 ft | 402 kts | 354° |
| 2026-05-05 22:59 | 37.35067 | -76.41304 | 26379 ft | 403 kts | 354° |
| 2026-05-05 22:59 | 37.37876 | -76.41422 | 27029 ft | 404 kts | 354° |
| 2026-05-05 22:59 | 37.40699 | -76.41535 | 27653 ft | 406 kts | 354° |
| 2026-05-05 23:00 | 37.46392 | -76.41704 | 28785 ft | 411 kts | 354° |
| 2026-05-05 23:00 | 37.49263 | -76.41773 | 29345 ft | 413 kts | 354° |
| 2026-05-05 23:00 | 37.52142 | -76.41831 | 29890 ft | 415 kts | 354° |
| 2026-05-05 23:01 | 37.55032 | -76.41879 | 30379 ft | 416 kts | 354° |
| 2026-05-05 23:01 | 37.57927 | -76.41921 | 30865 ft | 416 kts | 354° |
| 2026-05-05 23:01 | 37.60849 | -76.41947 | 30970 ft | 426 kts | 355° |
| 2026-05-05 23:01 | 37.63858 | -76.41922 | 30977 ft | 436 kts | 355° |
| 2026-05-05 23:02 | 37.69997 | -76.41847 | 30981 ft | 445 kts | 356° |
| 2026-05-05 23:02 | 37.76222 | -76.41752 | 30950 ft | 448 kts | 356° |
| 2026-05-05 23:03 | 37.82468 | -76.41654 | 30942 ft | 450 kts | 356° |
| 2026-05-05 23:03 | 37.88701 | -76.41554 | 30922 ft | 453 kts | 356° |
| 2026-05-05 23:04 | 37.94999 | -76.41449 | 30931 ft | 452 kts | 356° |
| 2026-05-05 23:04 | 38.01294 | -76.41256 | 30939 ft | 456 kts | 2° |
| 2026-05-05 23:05 | 38.04373 | -76.40144 | 30957 ft | 468 kts | 19° |
| 2026-05-05 23:05 | 38.07264 | -76.38167 | 30957 ft | 472 kts | 25° |
| 2026-05-05 23:05 | 38.13007 | -76.34158 | 30928 ft | 471 kts | 24° |
| 2026-05-05 23:06 | 38.18776 | -76.30188 | 30924 ft | 471 kts | 24° |
| 2026-05-05 23:06 | 38.24548 | -76.26231 | 30925 ft | 471 kts | 24° |
| 2026-05-05 23:07 | 38.30325 | -76.22274 | 30926 ft | 471 kts | 24° |
| 2026-05-05 23:07 | 38.36074 | -76.18335 | 30921 ft | 472 kts | 24° |
| 2026-05-05 23:08 | 38.41857 | -76.14367 | 30932 ft | 472 kts | 24° |
| 2026-05-05 23:08 | 38.47614 | -76.10411 | 30926 ft | 470 kts | 24° |
| 2026-05-05 23:09 | 38.53378 | -76.06446 | 30928 ft | 472 kts | 24° |
| 2026-05-05 23:09 | 38.59162 | -76.02458 | 30944 ft | 472 kts | 24° |
| 2026-05-05 23:10 | 38.64939 | -75.98469 | 30936 ft | 472 kts | 24° |
| 2026-05-05 23:10 | 38.67833 | -75.96468 | 30786 ft | 473 kts | 24° |
| 2026-05-05 23:10 | 38.70679 | -75.94494 | 30470 ft | 458 kts | 24° |
| 2026-05-05 23:11 | 38.73449 | -75.92575 | 30028 ft | 446 kts | 24° |
| 2026-05-05 23:11 | 38.76169 | -75.90695 | 29119 ft | 445 kts | 24° |
| 2026-05-05 23:11 | 38.78897 | -75.88815 | 28098 ft | 445 kts | 24° |
| 2026-05-05 23:11 | 38.81628 | -75.86936 | 27205 ft | 442 kts | 25° |
| 2026-05-05 23:12 | 38.84235 | -75.85128 | 27780 ft | 416 kts | 25° |
| 2026-05-05 23:12 | 38.86829 | -75.83330 | 27600 ft | 426 kts | 24° |
| 2026-05-05 23:12 | 38.89417 | -75.81533 | 28070 ft | 422 kts | 25° |
| 2026-05-05 23:12 | 38.91935 | -75.79788 | 28974 ft | 415 kts | 24° |
| 2026-05-05 23:13 | 38.94505 | -75.78002 | 28768 ft | 427 kts | 25° |
| 2026-05-05 23:13 | 38.96994 | -75.75846 | 28090 ft | 436 kts | 35° |
| 2026-05-05 23:13 | 38.99365 | -75.73508 | 27757 ft | 430 kts | 32° |
| 2026-05-05 23:13 | 39.01758 | -75.71259 | 27587 ft | 414 kts | 32° |
| 2026-05-05 23:14 | 39.04051 | -75.69112 | 27279 ft | 401 kts | 32° |
| 2026-05-05 23:14 | 39.06291 | -75.67033 | 26928 ft | 391 kts | 32° |
| 2026-05-05 23:14 | 39.08466 | -75.65026 | 26899 ft | 382 kts | 32° |
| 2026-05-05 23:14 | 39.10688 | -75.62989 | 26965 ft | 401 kts | 32° |
| 2026-05-05 23:15 | 39.13004 | -75.60866 | 27019 ft | 413 kts | 32° |
| 2026-05-05 23:15 | 39.15292 | -75.58763 | 26939 ft | 397 kts | 32° |
| 2026-05-05 23:15 | 39.17562 | -75.56685 | 26898 ft | 408 kts | 32° |
| 2026-05-05 23:15 | 39.19906 | -75.54538 | 26930 ft | 417 kts | 32° |
| 2026-05-05 23:16 | 39.22299 | -75.52345 | 26938 ft | 425 kts | 32° |
| 2026-05-05 23:16 | 39.24740 | -75.50127 | 26646 ft | 431 kts | 31° |
| 2026-05-05 23:16 | 39.27204 | -75.47965 | 26565 ft | 430 kts | 31° |
| 2026-05-05 23:16 | 39.29681 | -75.45786 | 26299 ft | 430 kts | 31° |
| 2026-05-05 23:17 | 39.32150 | -75.43608 | 26078 ft | 430 kts | 31° |
| 2026-05-05 23:17 | 39.34617 | -75.41431 | 25871 ft | 429 kts | 31° |
| 2026-05-05 23:17 | 39.37103 | -75.39236 | 25673 ft | 440 kts | 31° |
| 2026-05-05 23:17 | 39.39645 | -75.36988 | 25414 ft | 446 kts | 31° |
| 2026-05-05 23:18 | 39.42189 | -75.34734 | 25210 ft | 450 kts | 31° |
| 2026-05-05 23:18 | 39.44779 | -75.32437 | 24975 ft | 452 kts | 31° |
| 2026-05-05 23:18 | 39.47379 | -75.30128 | 24744 ft | 455 kts | 31° |
| 2026-05-05 23:18 | 39.49993 | -75.27804 | 24471 ft | 457 kts | 31° |
| 2026-05-05 23:19 | 39.52609 | -75.25438 | 23994 ft | 459 kts | 33° |
| 2026-05-05 23:19 | 39.55181 | -75.23000 | 23390 ft | 457 kts | 33° |
| 2026-05-05 23:19 | 39.57738 | -75.20586 | 22772 ft | 451 kts | 33° |
| 2026-05-05 23:19 | 39.60258 | -75.18206 | 22145 ft | 446 kts | 33° |
| 2026-05-05 23:20 | 39.62763 | -75.15843 | 21555 ft | 442 kts | 33° |
| 2026-05-05 23:20 | 39.65242 | -75.13502 | 20974 ft | 439 kts | 33° |
| 2026-05-05 23:20 | 39.66878 | -75.11958 | 20584 ft | 437 kts | 33° |
| 2026-05-05 23:20 | 39.70192 | -75.08952 | 19815 ft | 431 kts | 31° |
| 2026-05-05 23:21 | 39.71853 | -75.07549 | 19416 ft | 430 kts | 31° |
| 2026-05-05 23:21 | 39.75142 | -75.04744 | 18675 ft | 423 kts | 31° |
| 2026-05-05 23:21 | 39.77589 | -75.02649 | 18108 ft | 420 kts | 31° |
| 2026-05-05 23:21 | 39.80019 | -75.00562 | 17553 ft | 415 kts | 31° |
| 2026-05-05 23:22 | 39.82409 | -74.98504 | 17224 ft | 410 kts | 31° |
| 2026-05-05 23:22 | 39.84802 | -74.96444 | 16603 ft | 412 kts | 31° |
| 2026-05-05 23:22 | 39.86398 | -74.95045 | 16262 ft | 408 kts | 32° |
| 2026-05-05 23:22 | 39.88720 | -74.92929 | 15699 ft | 405 kts | 33° |
| 2026-05-05 23:23 | 39.90987 | -74.90868 | 15178 ft | 401 kts | 33° |
| 2026-05-05 23:23 | 39.93116 | -74.88542 | 14653 ft | 401 kts | 43° |
| 2026-05-05 23:23 | 39.94998 | -74.85863 | 14125 ft | 398 kts | 47° |
| 2026-05-05 23:23 | 39.96841 | -74.83198 | 13582 ft | 394 kts | 46° |
| 2026-05-05 23:24 | 39.98671 | -74.80564 | 13075 ft | 390 kts | 46° |
| 2026-05-05 23:24 | 40.00491 | -74.77946 | 12549 ft | 388 kts | 46° |
| 2026-05-05 23:24 | 40.02303 | -74.75343 | 12038 ft | 386 kts | 46° |
| 2026-05-05 23:24 | 40.04100 | -74.72761 | 11532 ft | 383 kts | 46° |
| 2026-05-05 23:25 | 40.05884 | -74.70195 | 11021 ft | 381 kts | 45° |
| 2026-05-05 23:25 | 40.07659 | -74.67642 | 10520 ft | 378 kts | 45° |
| 2026-05-05 23:25 | 40.09420 | -74.65106 | 10167 ft | 373 kts | 45° |
| 2026-05-05 23:25 | 40.11162 | -74.62598 | 9984 ft | 371 kts | 45° |
| 2026-05-05 23:26 | 40.12889 | -74.60112 | 10010 ft | 370 kts | 45° |
| 2026-05-05 23:26 | 40.14624 | -74.57611 | 10000 ft | 372 kts | 45° |
| 2026-05-05 23:26 | 40.16360 | -74.55109 | 10002 ft | 372 kts | 45° |
| 2026-05-05 23:26 | 40.18100 | -74.52598 | 10001 ft | 373 kts | 45° |
| 2026-05-05 23:27 | 40.19805 | -74.50133 | 9996 ft | 364 kts | 45° |
| 2026-05-05 23:27 | 40.21515 | -74.47756 | 9983 ft | 355 kts | 41° |
| 2026-05-05 23:27 | 40.23303 | -74.45555 | 9996 ft | 352 kts | 40° |
| 2026-05-05 23:27 | 40.25076 | -74.43346 | 9995 ft | 350 kts | 40° |
| 2026-05-05 23:28 | 40.26836 | -74.41144 | 9998 ft | 349 kts | 41° |
| 2026-05-05 23:28 | 40.28588 | -74.38944 | 10027 ft | 350 kts | 41° |
| 2026-05-05 23:28 | 40.30317 | -74.36763 | 10008 ft | 337 kts | 41° |
| 2026-05-05 23:28 | 40.31981 | -74.34661 | 9990 ft | 327 kts | 41° |
| 2026-05-05 23:29 | 40.33600 | -74.32613 | 10008 ft | 321 kts | 40° |
| 2026-05-05 23:29 | 40.35200 | -74.30590 | 10034 ft | 319 kts | 41° |
| 2026-05-05 23:29 | 40.36796 | -74.28568 | 10039 ft | 318 kts | 40° |
| 2026-05-05 23:29 | 40.38383 | -74.26556 | 10038 ft | 316 kts | 40° |
| 2026-05-05 23:30 | 40.39969 | -74.24545 | 9959 ft | 318 kts | 40° |
| 2026-05-05 23:30 | 40.41564 | -74.22519 | 9734 ft | 319 kts | 41° |
| 2026-05-05 23:30 | 40.43125 | -74.20533 | 9566 ft | 315 kts | 40° |
| 2026-05-05 23:30 | 40.44704 | -74.18524 | 9250 ft | 317 kts | 40° |
| 2026-05-05 23:31 | 40.46290 | -74.16505 | 8880 ft | 317 kts | 40° |
| 2026-05-05 23:31 | 40.47871 | -74.14493 | 8374 ft | 318 kts | 41° |
| 2026-05-05 23:31 | 40.49478 | -74.12445 | 7424 ft | 324 kts | 41° |
| 2026-05-05 23:31 | 40.51090 | -74.10388 | 6787 ft | 318 kts | 41° |
| 2026-05-05 23:32 | 40.52669 | -74.08443 | 6401 ft | 305 kts | 34° |
| 2026-05-05 23:32 | 40.54455 | -74.06924 | 6037 ft | 307 kts | 26° |
| 2026-05-05 23:32 | 40.56306 | -74.05477 | 5600 ft | 310 kts | 27° |
| 2026-05-05 23:32 | 40.58150 | -74.03990 | 5171 ft | 309 kts | 28° |
| 2026-05-05 23:33 | 40.59961 | -74.02495 | 4777 ft | 306 kts | 28° |
| 2026-05-05 23:33 | 40.61754 | -74.00996 | 4371 ft | 303 kts | 30° |
| 2026-05-05 23:33 | 40.63507 | -73.99513 | 4123 ft | 294 kts | 29° |
| 2026-05-05 23:33 | 40.65186 | -73.98104 | 3891 ft | 286 kts | 28° |
| 2026-05-05 23:34 | 40.66838 | -73.96725 | 3714 ft | 276 kts | 29° |
| 2026-05-05 23:34 | 40.68434 | -73.95387 | 3603 ft | 266 kts | 29° |
| 2026-05-05 23:34 | 40.69983 | -73.94083 | 3369 ft | 264 kts | 29° |
| 2026-05-05 23:34 | 40.71487 | -73.92782 | 3324 ft | 253 kts | 36° |
| 2026-05-05 23:35 | 40.72604 | -73.91041 | 3286 ft | 246 kts | 58° |
| 2026-05-05 23:35 | 40.73527 | -73.89162 | 3453 ft | 247 kts | 57° |
| 2026-05-05 23:35 | 40.74486 | -73.87234 | 3462 ft | 252 kts | 58° |
| 2026-05-05 23:35 | 40.75454 | -73.85308 | 3445 ft | 252 kts | 57° |
| 2026-05-05 23:36 | 40.76405 | -73.83398 | 3364 ft | 251 kts | 57° |
| 2026-05-05 23:36 | 40.77348 | -73.81482 | 3373 ft | 248 kts | 58° |
| 2026-05-05 23:36 | 40.78299 | -73.79567 | 3349 ft | 250 kts | 57° |
| 2026-05-05 23:36 | 40.79255 | -73.77644 | 3366 ft | 251 kts | 57° |
| 2026-05-05 23:37 | 40.80207 | -73.75713 | 3379 ft | 252 kts | 57° |
| 2026-05-05 23:37 | 40.81229 | -73.73839 | 3355 ft | 250 kts | 43° |
| 2026-05-05 23:37 | 40.82549 | -73.72376 | 3420 ft | 248 kts | 37° |
| 2026-05-05 23:37 | 40.83882 | -73.70911 | 3397 ft | 250 kts | 37° |
| 2026-05-05 23:38 | 40.85225 | -73.69455 | 3388 ft | 249 kts | 37° |
| 2026-05-05 23:38 | 40.86611 | -73.68097 | 3382 ft | 247 kts | 32° |
| 2026-05-05 23:38 | 40.88000 | -73.66739 | 3388 ft | 249 kts | 34° |
| 2026-05-05 23:38 | 40.89390 | -73.65367 | 3386 ft | 248 kts | 34° |
| 2026-05-05 23:39 | 40.90775 | -73.63999 | 3385 ft | 251 kts | 33° |
| 2026-05-05 23:39 | 40.92330 | -73.63004 | 3383 ft | 246 kts | 2° |
| 2026-05-05 23:39 | 40.93938 | -73.63228 | 3396 ft | 225 kts | 326° |
| 2026-05-05 23:39 | 40.95046 | -73.64497 | 3430 ft | 205 kts | 296° |
| 2026-05-05 23:40 | 40.95838 | -73.66016 | 3450 ft | 201 kts | 296° |
| 2026-05-05 23:40 | 40.96597 | -73.67498 | 3426 ft | 185 kts | 286° |
| 2026-05-05 23:40 | 40.96818 | -73.69026 | 3389 ft | 157 kts | 259° |
| 2026-05-05 23:40 | 40.96565 | -73.70324 | 3338 ft | 138 kts | 242° |
| 2026-05-05 23:41 | 40.96046 | -73.71321 | 3236 ft | 127 kts | 226° |
| 2026-05-05 23:41 | 40.95370 | -73.72024 | 3059 ft | 123 kts | 220° |
| 2026-05-05 23:41 | 40.94674 | -73.72702 | 2823 ft | 127 kts | 219° |
| 2026-05-05 23:41 | 40.93913 | -73.73428 | 2625 ft | 142 kts | 218° |
| 2026-05-05 23:42 | 40.93088 | -73.74209 | 2446 ft | 149 kts | 217° |
| 2026-05-05 23:42 | 40.92222 | -73.75018 | 2255 ft | 155 kts | 218° |
| 2026-05-05 23:42 | 40.91330 | -73.75849 | 2032 ft | 157 kts | 217° |
| 2026-05-05 23:42 | 40.90428 | -73.76697 | 1743 ft | 162 kts | 217° |
| 2026-05-05 23:43 | 40.89529 | -73.77548 | 1684 ft | 154 kts | 217° |
| 2026-05-05 23:43 | 40.88662 | -73.78391 | 1708 ft | 153 kts | 218° |
| 2026-05-05 23:43 | 40.87833 | -73.79197 | 1719 ft | 148 kts | 217° |
| 2026-05-05 23:43 | 40.87003 | -73.79999 | 1700 ft | 151 kts | 217° |
| 2026-05-05 23:44 | 40.86159 | -73.80811 | 1703 ft | 151 kts | 215° |
| 2026-05-05 23:44 | 40.85275 | -73.81555 | 1606 ft | 149 kts | 212° |
| 2026-05-05 23:44 | 40.84374 | -73.82276 | 1497 ft | 155 kts | 212° |
| 2026-05-05 23:44 | 40.83501 | -73.82979 | 1264 ft | 135 kts | 212° |
| 2026-05-05 23:45 | 40.82728 | -73.83587 | 968 ft | 125 kts | 210° |
| 2026-05-05 23:45 | 40.82015 | -73.84173 | 773 ft | 113 kts | 211° |
| 2026-05-05 23:45 | 40.81383 | -73.84707 | 680 ft | 105 kts | 211° |
| 2026-05-05 23:45 | 40.80793 | -73.85210 | 563 ft | 102 kts | 211° |
| 2026-05-05 23:46 | 40.80143 | -73.85746 | 436 ft | 115 kts | 211° |
| 2026-05-05 23:46 | 40.79485 | -73.86287 | 297 ft | 109 kts | 211° |
| 2026-05-05 23:46 | 40.78832 | -73.86828 | 143 ft | 109 kts | 213° |
| 2026-05-05 23:46 | 40.78198 | -73.87356 | 13 ft | 100 kts | 212° |
| 2026-05-05 23:47 | 40.77730 | -73.87743 | 22 ft | 44 kts | 211° |
| 2026-05-05 23:47 | 40.77588 | -73.87835 | 24 ft | 15 kts | 175° |
| 2026-05-05 23:47 | 40.77542 | -73.87773 | 20 ft | 5 kts | 96° |
| 2026-05-05 23:47 | 40.77542 | -73.87771 | 20 ft | 0 kts | 98° |
| 2026-05-05 23:49 | 40.77542 | -73.87767 | 20 ft | 2 kts | 94° |
| 2026-05-05 23:49 | 40.77542 | -73.87716 | 18 ft | 9 kts | 114° |
| 2026-05-05 23:49 | 40.77504 | -73.87622 | 17 ft | 14 kts | 123° |
| 2026-05-05 23:50 | 40.77457 | -73.87525 | 19 ft | 11 kts | 121° |
| 2026-05-05 23:50 | 40.77434 | -73.87421 | 17 ft | 13 kts | 99° |
| 2026-05-05 23:50 | 40.77430 | -73.87290 | 17 ft | 16 kts | 91° |
| 2026-05-05 23:50 | 40.77417 | -73.87159 | 17 ft | 13 kts | 67° |
| 2026-05-05 23:51 | 40.77467 | -73.87117 | 17 ft | 4 kts | 350° |
| 2026-05-05 23:51 | 40.77503 | -73.87144 | 17 ft | 3 kts | 323° |
| 2026-05-05 23:51 | 40.77512 | -73.87153 | 17 ft | 0 kts | 325° |